Time;durP1;ratioP1;P1;durP2;ratioP2;P2;SDS_P1;SDS_P2;PMS_P1;PMS_P2;Temp;Humidity;BMP_temperature;BMP_pressure;BME280_temperature;BME280_humidity;BME280_pressure;Samples;Min_cycle;Max_cycle;Signal;HPM_P1;HPM_P2
2022/01/17 00:01:07;;;;;;;17.53;10.87;;;;;;;;;;4749070;30;21155;-90
2022/01/17 00:04:11;;;;;;;14.90;10.07;;;;;;;;;;4749549;30;20559;-90
2022/01/17 00:07:16;;;;;;;16.30;10.10;;;;;;;;;;4749068;30;20556;-90
2022/01/17 00:10:20;;;;;;;14.90;10.07;;;;;;;;;;4739888;30;20996;-90
2022/01/17 00:13:27;;;;;;;15.10;9.73;;;;;;;;;;4752453;30;20567;-89
2022/01/17 00:16:41;;;;;;;15.33;9.93;;;;;;;;;;4742124;30;20564;-90
2022/01/17 00:19:46;;;;;;;15.20;10.57;;;;;;;;;;4741805;30;20640;-90
2022/01/17 00:22:52;;;;;;;16.13;10.30;;;;;;;;;;4752045;30;20568;-90
2022/01/17 00:25:57;;;;;;;16.47;10.03;;;;;;;;;;4752310;30;20559;-90
2022/01/17 00:29:01;;;;;;;14.37;9.73;;;;;;;;;;4742093;30;20634;-91
2022/01/17 00:32:05;;;;;;;15.60;9.87;;;;;;;;;;4741674;30;21159;-90
2022/01/17 00:35:09;;;;;;;15.10;10.43;;;;;;;;;;4751979;30;20557;-90
2022/01/17 00:38:14;;;;;;;15.60;9.97;;;;;;;;;;4742219;30;21012;-90
2022/01/17 00:41:18;;;;;;;14.80;9.90;;;;;;;;;;4741583;30;20564;-90
2022/01/17 00:44:23;;;;;;;14.30;9.57;;;;;;;;;;4742027;30;20552;-90
2022/01/17 00:47:26;;;;;;;13.80;10.27;;;;;;;;;;4761587;30;20565;-90
2022/01/17 00:50:31;;;;;;;17.13;11.10;;;;;;;;;;4761652;30;20577;-89
2022/01/17 00:53:37;;;;;;;21.87;11.93;;;;;;;;;;4741858;30;20976;-89
2022/01/17 00:56:41;;;;;;;19.27;11.33;;;;;;;;;;4741803;30;20583;-89
2022/01/17 00:59:45;;;;;;;16.67;10.87;;;;;;;;;;4741128;30;20662;-89
2022/01/17 01:02:49;;;;;;;17.83;11.27;;;;;;;;;;4761570;30;20567;-89
2022/01/17 01:05:54;;;;;;;16.53;10.77;;;;;;;;;;4741319;30;20575;-89
2022/01/17 01:08:58;;;;;;;20.37;12.27;;;;;;;;;;4741073;30;20648;-89
2022/01/17 01:12:03;;;;;;;16.63;11.40;;;;;;;;;;4740986;30;20992;-90
2022/01/17 01:15:14;;;;;;;19.30;11.80;;;;;;;;;;4750962;30;20577;-89
2022/01/17 01:18:36;;;;;;;21.00;12.27;;;;;;;;;;4751019;30;20716;-90
2022/01/17 01:27:40;;;;;;;21.93;13.87;;;;;;;;;;4739861;30;20572;-90
2022/01/17 01:28:31;;;;;;;18.37;12.60;;;;;;;;;;4760788;30;20666;-90
2022/01/17 01:31:53;;;;;;;23.63;12.30;;;;;;;;;;4750548;30;20666;-90
2022/01/17 01:34:59;;;;;;;19.23;12.30;;;;;;;;;;4750779;30;20576;-90
2022/01/17 01:38:04;;;;;;;20.90;13.23;;;;;;;;;;4741033;30;20647;-90
2022/01/17 01:41:08;;;;;;;22.27;11.23;;;;;;;;;;4740831;30;20574;-90
2022/01/17 01:44:14;;;;;;;17.40;11.50;;;;;;;;;;4740748;30;20557;-90
2022/01/17 01:47:23;;;;;;;19.40;12.07;;;;;;;;;;4740815;30;20559;-90
2022/01/17 01:50:28;;;;;;;20.20;12.17;;;;;;;;;;4750664;30;20564;-89
2022/01/17 01:53:32;;;;;;;19.33;11.23;;;;;;;;;;4760776;30;20558;-89
2022/01/17 01:56:38;;;;;;;17.93;11.93;;;;;;;;;;4740483;30;20583;-89
2022/01/17 01:59:42;;;;;;;16.33;11.20;;;;;;;;;;4760392;30;21221;-89
2022/01/17 02:02:46;;;;;;;19.00;11.10;;;;;;;;;;4740318;30;20555;-89
2022/01/17 02:05:51;;;;;;;18.17;10.73;;;;;;;;;;4740527;30;20563;-90
2022/01/17 02:08:55;;;;;;;18.10;11.90;;;;;;;;;;4749854;30;20634;-89
2022/01/17 02:11:59;;;;;;;18.37;10.93;;;;;;;;;;4760226;30;21017;-90
2022/01/17 02:15:05;;;;;;;16.27;10.57;;;;;;;;;;4740414;30;20568;-90
2022/01/17 02:18:11;;;;;;;16.90;11.33;;;;;;;;;;4750071;30;20638;-89
2022/01/17 02:24:21;;;;;;;17.43;11.00;;;;;;;;;;4760203;30;20555;-89
2022/01/17 02:27:26;;;;;;;18.03;11.37;;;;;;;;;;4770427;30;20578;-89
2022/01/17 02:30:33;;;;;;;17.40;11.00;;;;;;;;;;4750110;30;21111;-90
2022/01/17 02:33:37;;;;;;;18.47;11.73;;;;;;;;;;4749773;30;20559;-89
2022/01/17 02:36:42;;;;;;;18.17;11.20;;;;;;;;;;4749948;30;20580;-89
2022/01/17 02:39:46;;;;;;;17.90;11.13;;;;;;;;;;4740060;30;20639;-89
2022/01/17 02:43:01;;;;;;;17.17;11.77;;;;;;;;;;4749508;30;20611;-90
2022/01/17 02:49:10;;;;;;;17.00;11.67;;;;;;;;;;4759660;30;20643;-89
2022/01/17 02:52:18;;;;;;;17.40;10.57;;;;;;;;;;4750383;30;20972;-89
2022/01/17 02:55:22;;;;;;;19.67;11.67;;;;;;;;;;4751165;30;20572;-89
2022/01/17 02:58:28;;;;;;;20.93;11.83;;;;;;;;;;4749695;30;20662;-90
2022/01/17 03:01:32;;;;;;;20.03;12.07;;;;;;;;;;4749704;30;20974;-91
2022/01/17 03:04:36;;;;;;;17.23;11.57;;;;;;;;;;4739699;30;20964;-90
2022/01/17 03:07:41;;;;;;;15.87;10.53;;;;;;;;;;4756486;30;20618;-90
2022/01/17 03:10:50;;;;;;;18.03;11.27;;;;;;;;;;4756952;30;20574;-90
2022/01/17 03:13:55;;;;;;;17.77;10.47;;;;;;;;;;4767468;30;20560;-90
2022/01/17 03:16:59;;;;;;;16.00;10.40;;;;;;;;;;4757531;30;20596;-90
2022/01/17 03:20:04;;;;;;;20.20;11.33;;;;;;;;;;4749846;30;20612;-90
2022/01/17 03:23:08;;;;;;;18.37;11.33;;;;;;;;;;4759504;30;20549;-91
2022/01/17 03:26:13;;;;;;;19.40;11.87;;;;;;;;;;4739237;30;20573;-90
2022/01/17 03:29:17;;;;;;;17.93;11.87;;;;;;;;;;4759626;30;20638;-90
2022/01/17 03:32:21;;;;;;;18.00;11.23;;;;;;;;;;4749023;30;20615;-90
2022/01/17 03:35:26;;;;;;;19.27;11.93;;;;;;;;;;4759582;30;21255;-90
2022/01/17 03:38:32;;;;;;;18.03;11.37;;;;;;;;;;4749518;30;20635;-89
2022/01/17 03:41:36;;;;;;;17.53;11.67;;;;;;;;;;4749197;30;20556;-90
2022/01/17 03:44:40;;;;;;;19.60;11.97;;;;;;;;;;4759336;30;21190;-90
2022/01/17 03:47:49;;;;;;;19.23;11.40;;;;;;;;;;4755515;30;20966;-89
2022/01/17 03:50:55;;;;;;;18.67;11.40;;;;;;;;;;4770509;30;20921;-89
2022/01/17 03:53:59;;;;;;;22.83;12.77;;;;;;;;;;4760055;30;20567;-89
2022/01/17 03:57:03;;;;;;;18.57;11.60;;;;;;;;;;4760432;30;20563;-90
2022/01/17 04:00:09;;;;;;;17.83;10.93;;;;;;;;;;4780707;30;20559;-91
2022/01/17 04:03:18;;;;;;;20.03;12.43;;;;;;;;;;4770965;30;20564;-90
2022/01/17 04:06:23;;;;;;;19.30;11.73;;;;;;;;;;4760295;30;20558;-91
2022/01/17 04:09:28;;;;;;;19.53;10.90;;;;;;;;;;4770233;30;20653;-90
2022/01/17 04:12:32;;;;;;;19.13;11.37;;;;;;;;;;4760534;30;20602;-91
2022/01/17 04:15:37;;;;;;;17.63;11.40;;;;;;;;;;4760071;30;20579;-90
2022/01/17 04:18:41;;;;;;;19.73;11.63;;;;;;;;;;4752063;30;20677;-90
2022/01/17 04:21:47;;;;;;;18.83;11.37;;;;;;;;;;4742486;30;20565;-90
2022/01/17 04:24:51;;;;;;;15.87;10.57;;;;;;;;;;4742042;30;20626;-90
2022/01/17 04:27:57;;;;;;;18.03;11.53;;;;;;;;;;4742183;30;20996;-90
2022/01/17 04:31:02;;;;;;;18.10;11.37;;;;;;;;;;4752032;30;20623;-90
2022/01/17 04:34:06;;;;;;;18.37;11.70;;;;;;;;;;4752279;30;20543;-89
2022/01/17 04:37:10;;;;;;;20.00;12.43;;;;;;;;;;4752264;30;20561;-90
2022/01/17 04:40:14;;;;;;;18.20;12.17;;;;;;;;;;4742024;30;20569;-90
2022/01/17 04:46:23;;;;;;;18.90;12.07;;;;;;;;;;4752069;30;20568;-90
2022/01/17 04:49:27;;;;;;;19.57;12.10;;;;;;;;;;4741694;30;20639;-90
2022/01/17 04:52:31;;;;;;;19.60;12.30;;;;;;;;;;4741691;30;20619;-90
2022/01/17 04:55:36;;;;;;;18.97;12.37;;;;;;;;;;4741424;30;20568;-90
2022/01/17 04:58:40;;;;;;;18.63;11.37;;;;;;;;;;4768374;24;20702;-90
2022/01/17 05:01:45;;;;;;;16.73;11.27;;;;;;;;;;4752236;30;20579;-90
2022/01/17 05:04:51;;;;;;;17.40;11.20;;;;;;;;;;4779614;30;20940;-90
2022/01/17 05:07:55;;;;;;;20.20;11.73;;;;;;;;;;4755991;30;20728;-90
2022/01/17 05:10:59;;;;;;;19.20;12.10;;;;;;;;;;4751417;30;21162;-90
2022/01/17 05:14:03;;;;;;;18.60;11.27;;;;;;;;;;4761668;30;20611;-90
2022/01/17 05:20:36;;;;;;;16.83;10.53;;;;;;;;;;4726470;30;20997;-90
2022/01/17 05:23:42;;;;;;;16.90;10.50;;;;;;;;;;4723722;30;20620;-90
2022/01/17 05:26:47;;;;;;;16.83;10.73;;;;;;;;;;4723281;30;20625;-90
2022/01/17 05:29:51;;;;;;;15.87;10.57;;;;;;;;;;4733553;30;20985;-90
2022/01/17 05:32:59;;;;;;;16.53;10.83;;;;;;;;;;4746141;30;20727;-89
2022/01/17 05:36:04;;;;;;;18.43;10.83;;;;;;;;;;4740957;30;20604;-90
2022/01/17 05:39:07;;;;;;;17.97;11.17;;;;;;;;;;4740563;30;20658;-89
2022/01/17 05:42:17;;;;;;;15.93;10.70;;;;;;;;;;4750358;30;20577;-90
2022/01/17 05:45:22;;;;;;;21.00;11.03;;;;;;;;;;4740516;30;20564;-88
2022/01/17 05:48:27;;;;;;;17.13;10.70;;;;;;;;;;4740784;30;20640;-90
2022/01/17 05:51:31;;;;;;;15.93;10.20;;;;;;;;;;4750817;30;20564;-90
2022/01/17 05:54:35;;;;;;;16.77;10.80;;;;;;;;;;4740944;30;20547;-89
2022/01/17 05:57:40;;;;;;;16.73;10.33;;;;;;;;;;4742917;30;20568;-90
2022/01/17 06:00:47;;;;;;;18.37;10.63;;;;;;;;;;4733683;30;21148;-90
2022/01/17 06:03:51;;;;;;;18.43;10.93;;;;;;;;;;4733090;30;20616;-90
2022/01/17 06:06:55;;;;;;;13.93;9.43;;;;;;;;;;4732902;30;20577;-90
2022/01/17 06:10:01;;;;;;;16.93;10.07;;;;;;;;;;4733683;30;21030;-90
2022/01/17 06:13:05;;;;;;;14.80;10.50;;;;;;;;;;4733460;30;21203;-89
2022/01/17 06:16:10;;;;;;;16.87;10.47;;;;;;;;;;4742862;30;20576;-91
2022/01/17 06:19:14;;;;;;;15.03;9.97;;;;;;;;;;4732965;30;20641;-90
2022/01/17 06:22:18;;;;;;;15.83;9.83;;;;;;;;;;4742623;30;20569;-91
2022/01/17 06:25:22;;;;;;;17.10;10.33;;;;;;;;;;4732991;30;20558;-91
2022/01/17 06:28:27;;;;;;;15.17;10.10;;;;;;;;;;4740196;30;20676;-90
2022/01/17 06:31:31;;;;;;;16.70;9.77;;;;;;;;;;4723064;30;20561;-90
2022/01/17 06:34:35;;;;;;;15.03;10.00;;;;;;;;;;4735415;30;20899;-91
2022/01/17 06:37:40;;;;;;;15.33;9.70;;;;;;;;;;4723548;30;20561;-90
2022/01/17 06:40:44;;;;;;;16.23;9.43;;;;;;;;;;4732064;30;20557;-90
2022/01/17 06:43:48;;;;;;;14.53;8.77;;;;;;;;;;4731917;30;21180;-90
2022/01/17 06:46:52;;;;;;;14.77;8.53;;;;;;;;;;4733018;30;20631;-90
2022/01/17 06:49:56;;;;;;;15.27;9.40;;;;;;;;;;4750258;30;20556;-87
2022/01/17 06:53:00;;;;;;;15.27;8.97;;;;;;;;;;4750057;30;20604;-88
2022/01/17 06:56:04;;;;;;;15.00;9.60;;;;;;;;;;4739818;30;20572;-88
2022/01/17 06:59:08;;;;;;;15.50;9.47;;;;;;;;;;4749716;30;20651;-88
2022/01/17 07:02:12;;;;;;;19.43;12.40;;;;;;;;;;4749754;30;20560;-89
2022/01/17 07:05:18;;;;;;;15.17;9.43;;;;;;;;;;4749570;30;20574;-88
2022/01/17 07:08:22;;;;;;;16.63;10.23;;;;;;;;;;4749945;30;20631;-88
2022/01/17 07:11:26;;;;;;;13.67;9.97;;;;;;;;;;4749540;30;20559;-88
2022/01/17 07:14:31;;;;;;;15.33;10.03;;;;;;;;;;4739342;30;20624;-88
2022/01/17 07:17:36;;;;;;;13.80;9.40;;;;;;;;;;4740127;30;20574;-88
2022/01/17 07:20:40;;;;;;;13.37;8.57;;;;;;;;;;4742197;30;20561;-88
2022/01/17 07:23:44;;;;;;;13.23;8.63;;;;;;;;;;4742997;30;21084;-89
2022/01/17 07:26:48;;;;;;;13.73;8.53;;;;;;;;;;4743092;30;20556;-88
2022/01/17 07:29:53;;;;;;;12.53;8.37;;;;;;;;;;4752896;30;20981;-87
2022/01/17 07:32:56;;;;;;;13.80;9.23;;;;;;;;;;4742878;30;20624;-89
2022/01/17 07:36:01;;;;;;;14.73;9.60;;;;;;;;;;4752914;30;20556;-89
2022/01/17 07:39:05;;;;;;;16.10;8.83;;;;;;;;;;4762714;30;20640;-89
2022/01/17 07:42:10;;;;;;;13.50;9.47;;;;;;;;;;4742880;30;20910;-89
2022/01/17 07:45:16;;;;;;;12.60;8.60;;;;;;;;;;4742988;30;20607;-89
2022/01/17 07:48:45;;;;;;;15.30;9.30;;;;;;;;;;4752885;30;20639;-88
2022/01/17 07:52:00;;;;;;;12.80;8.47;;;;;;;;;;4753133;30;20553;-88
2022/01/17 07:55:05;;;;;;;36.43;23.30;;;;;;;;;;4752691;30;20553;-89
2022/01/17 07:58:09;;;;;;;56.73;39.87;;;;;;;;;;4742292;30;21253;-89
2022/01/17 08:01:13;;;;;;;48.57;32.33;;;;;;;;;;4742722;30;20571;-89
2022/01/17 08:04:17;;;;;;;14.77;10.17;;;;;;;;;;4752526;30;20571;-89
2022/01/17 08:07:21;;;;;;;17.50;10.27;;;;;;;;;;4742361;30;21136;-89
2022/01/17 08:10:25;;;;;;;13.33;9.40;;;;;;;;;;4752808;30;21182;-89
2022/01/17 08:13:30;;;;;;;14.03;8.83;;;;;;;;;;4752407;30;20608;-90
2022/01/17 08:16:34;;;;;;;14.07;8.70;;;;;;;;;;4752217;30;20579;-89
2022/01/17 08:19:38;;;;;;;15.47;10.63;;;;;;;;;;4752698;30;20635;-89
2022/01/17 08:22:45;;;;;;;15.73;10.03;;;;;;;;;;4752373;30;20626;-89
2022/01/17 08:25:49;;;;;;;30.43;19.87;;;;;;;;;;4743043;30;20581;-89
2022/01/17 08:28:53;;;;;;;16.33;11.50;;;;;;;;;;4741670;30;20685;-88
2022/01/17 08:31:59;;;;;;;24.17;16.93;;;;;;;;;;4733933;30;20649;-89
2022/01/17 08:35:04;;;;;;;51.03;24.37;;;;;;;;;;4744536;30;20568;-89
2022/01/17 08:38:08;;;;;;;26.30;15.43;;;;;;;;;;4734748;30;20647;-89
2022/01/17 08:41:12;;;;;;;41.33;22.40;;;;;;;;;;4724586;30;20576;-89
2022/01/17 08:44:19;;;;;;;49.13;25.63;;;;;;;;;;4734687;30;20561;-90
2022/01/17 08:47:23;;;;;;;21.33;13.00;;;;;;;;;;4724492;30;20558;-89
2022/01/17 08:50:28;;;;;;;32.67;19.00;;;;;;;;;;4734208;30;20943;-89
2022/01/17 08:53:33;;;;;;;23.10;14.90;;;;;;;;;;4724176;30;20616;-89
2022/01/17 08:56:37;;;;;;;52.43;26.47;;;;;;;;;;4734159;30;20577;-89
2022/01/17 08:59:41;;;;;;;51.70;23.17;;;;;;;;;;4723715;30;20663;-89
2022/01/17 09:02:46;;;;;;;33.70;20.00;;;;;;;;;;4744343;30;20560;-89
2022/01/17 09:05:51;;;;;;;22.13;14.40;;;;;;;;;;4724271;30;20563;-89
2022/01/17 09:08:55;;;;;;;15.70;10.00;;;;;;;;;;4753895;30;20652;-89
2022/01/17 09:11:59;;;;;;;10.93;8.23;;;;;;;;;;4744145;30;20622;-89
2022/01/17 09:15:04;;;;;;;17.23;10.20;;;;;;;;;;4733708;30;20600;-89
2022/01/17 09:18:08;;;;;;;12.87;7.47;;;;;;;;;;4744752;30;20649;-89
2022/01/17 09:21:12;;;;;;;15.57;9.73;;;;;;;;;;4733722;30;20562;-89
2022/01/17 09:24:16;;;;;;;11.27;8.00;;;;;;;;;;4733632;30;20553;-89
2022/01/17 09:27:20;;;;;;;24.83;16.70;;;;;;;;;;4743862;30;20554;-89
2022/01/17 09:30:25;;;;;;;15.20;10.67;;;;;;;;;;4743537;30;20564;-89
2022/01/17 09:33:28;;;;;;;12.50;8.83;;;;;;;;;;4735806;30;20622;-89
2022/01/17 09:36:34;;;;;;;16.60;8.67;;;;;;;;;;4734312;30;20574;-89
2022/01/17 09:39:38;;;;;;;15.27;9.63;;;;;;;;;;4733472;30;20628;-88
2022/01/17 09:42:43;;;;;;;12.73;8.40;;;;;;;;;;4742403;30;20911;-89
2022/01/17 09:45:47;;;;;;;13.63;9.10;;;;;;;;;;4733472;30;21081;-89
2022/01/17 09:48:59;;;;;;;12.33;8.60;;;;;;;;;;4732832;30;20632;-89
2022/01/17 09:52:25;;;;;;;19.90;14.47;;;;;;;;;;4733303;30;20569;-89
2022/01/17 09:55:30;;;;;;;15.37;9.90;;;;;;;;;;4723098;30;20553;-89
2022/01/17 09:58:37;;;;;;;15.37;10.40;;;;;;;;;;4742753;30;20644;-89
2022/01/17 10:01:41;;;;;;;14.23;8.83;;;;;;;;;;4753164;30;20643;-88
2022/01/17 10:04:46;;;;;;;14.70;9.47;;;;;;;;;;4735610;30;20545;-89
2022/01/17 10:08:06;;;;;;;14.23;9.00;;;;;;;;;;4734127;30;20629;-89
2022/01/17 10:11:16;;;;;;;11.00;7.60;;;;;;;;;;4753071;30;20908;-89
2022/01/17 10:14:24;;;;;;;12.10;8.73;;;;;;;;;;4732995;30;20609;-89
2022/01/17 10:17:50;;;;;;;11.87;8.33;;;;;;;;;;4732755;30;20553;-89
2022/01/17 10:21:00;;;;;;;11.50;8.20;;;;;;;;;;4722575;30;21082;-90
2022/01/17 10:27:58;;;;;;;15.40;9.33;;;;;;;;;;4732432;30;20577;-88
2022/01/17 10:34:54;;;;;;;13.07;8.20;;;;;;;;;;4742822;30;21168;-89
2022/01/17 10:38:10;;;;;;;12.17;7.80;;;;;;;;;;4742922;30;20641;-89
2022/01/17 10:41:15;;;;;;;11.87;7.77;;;;;;;;;;4742108;30;20605;-89
2022/01/17 10:44:39;;;;;;;11.37;8.67;;;;;;;;;;4731928;30;20604;-89
2022/01/17 10:47:44;;;;;;;12.87;8.70;;;;;;;;;;4759269;30;20597;-89
2022/01/17 10:50:50;;;;;;;12.97;10.03;;;;;;;;;;4732077;30;20986;-88
2022/01/17 10:53:56;;;;;;;10.43;6.77;;;;;;;;;;4731727;30;21189;-87
2022/01/17 10:57:04;;;;;;;10.10;6.97;;;;;;;;;;4752758;30;20565;-87
2022/01/17 11:00:11;;;;;;;8.97;5.83;;;;;;;;;;4741888;30;20637;-87
2022/01/17 11:03:19;;;;;;;7.97;5.70;;;;;;;;;;4742223;30;20195;-88
2022/01/17 11:06:23;;;;;;;7.50;5.87;;;;;;;;;;4752200;30;20536;-89
2022/01/17 11:09:37;;;;;;;10.07;6.87;;;;;;;;;;4732037;30;20227;-89
2022/01/17 11:12:41;;;;;;;10.13;7.40;;;;;;;;;;4732105;30;20195;-89
2022/01/17 11:15:51;;;;;;;7.53;5.83;;;;;;;;;;4742057;30;20218;-90
2022/01/17 11:19:10;;;;;;;8.63;5.87;;;;;;;;;;4731760;30;20644;-89
2022/01/17 11:22:15;;;;;;;7.00;5.30;;;;;;;;;;4732167;30;20199;-89
2022/01/17 11:25:28;;;;;;;9.23;5.57;;;;;;;;;;4721983;30;20207;-89
2022/01/17 11:28:34;;;;;;;9.00;6.47;;;;;;;;;;4741754;30;20699;-89
2022/01/17 11:31:38;;;;;;;6.60;5.50;;;;;;;;;;4721654;30;20210;-89
2022/01/17 11:34:43;;;;;;;6.50;5.30;;;;;;;;;;4741591;30;20239;-89
2022/01/17 11:37:51;;;;;;;6.10;4.67;;;;;;;;;;4741696;30;20560;-89
2022/01/17 11:40:57;;;;;;;7.23;4.83;;;;;;;;;;4731954;30;20199;-88
2022/01/17 11:44:08;;;;;;;6.00;5.10;;;;;;;;;;4751687;30;20211;-89
2022/01/17 11:47:12;;;;;;;7.50;5.13;;;;;;;;;;4741959;30;20553;-89
2022/01/17 11:50:28;;;;;;;6.93;5.03;;;;;;;;;;4742152;30;20545;-89
2022/01/17 11:53:38;;;;;;;6.33;4.57;;;;;;;;;;4751794;30;21160;-89
2022/01/17 11:56:58;;;;;;;6.57;4.87;;;;;;;;;;4741758;30;20554;-89
2022/01/17 12:00:05;;;;;;;6.17;4.80;;;;;;;;;;4741606;30;20621;-89
2022/01/17 12:03:21;;;;;;;6.93;4.87;;;;;;;;;;4751881;30;20553;-88
2022/01/17 12:06:32;;;;;;;7.13;5.10;;;;;;;;;;4732604;30;20565;-89
2022/01/17 12:09:44;;;;;;;6.73;4.90;;;;;;;;;;4734920;30;20636;-89
2022/01/17 12:16:30;;;;;;;8.23;4.80;;;;;;;;;;4744922;30;20549;-89
2022/01/17 12:19:34;;;;;;;6.20;4.13;;;;;;;;;;4744916;30;20235;-89
2022/01/17 12:22:38;;;;;;;8.97;6.40;;;;;;;;;;4734555;30;20553;-89
2022/01/17 12:25:42;;;;;;;6.40;4.60;;;;;;;;;;4744899;30;20553;-89
2022/01/17 12:28:54;;;;;;;6.80;5.27;;;;;;;;;;4744465;30;20636;-89
2022/01/17 12:31:58;;;;;;;7.43;4.87;;;;;;;;;;4734120;30;20206;-89
2022/01/17 12:35:05;;;;;;;8.47;5.27;;;;;;;;;;4744520;30;20222;-89
2022/01/17 12:38:14;;;;;;;9.20;5.17;;;;;;;;;;4744574;30;20628;-89
2022/01/17 12:41:32;;;;;;;7.73;5.87;;;;;;;;;;4725337;30;20215;-89
2022/01/17 12:44:43;;;;;;;8.07;6.03;;;;;;;;;;4724464;30;20554;-89
2022/01/17 12:47:48;;;;;;;7.63;5.37;;;;;;;;;;4744113;30;20199;-88
2022/01/17 12:50:54;;;;;;;8.20;6.13;;;;;;;;;;4754668;30;20554;-89
2022/01/17 12:53:58;;;;;;;8.10;6.17;;;;;;;;;;4744873;30;20558;-89
2022/01/17 12:57:02;;;;;;;7.73;6.13;;;;;;;;;;4744265;30;20561;-89
2022/01/17 13:00:11;;;;;;;9.47;6.07;;;;;;;;;;4724011;30;20620;-89
2022/01/17 13:03:16;;;;;;;7.50;5.63;;;;;;;;;;4744090;30;20553;-89
2022/01/17 13:06:20;;;;;;;7.47;5.60;;;;;;;;;;4734110;30;20191;-89
2022/01/17 13:09:25;;;;;;;10.00;7.20;;;;;;;;;;4723967;30;20640;-89
2022/01/17 13:12:29;;;;;;;13.33;10.23;;;;;;;;;;4744432;30;20573;-90
2022/01/17 13:15:33;;;;;;;7.07;5.73;;;;;;;;;;4727561;30;20602;-89
2022/01/17 13:18:37;;;;;;;5.33;4.63;;;;;;;;;;4741521;30;20227;-89
2022/01/17 13:21:44;;;;;;;6.17;4.87;;;;;;;;;;4743712;30;20219;-89
2022/01/17 13:25:02;;;;;;;7.27;5.00;;;;;;;;;;4733895;30;20628;-90
2022/01/17 13:28:06;;;;;;;12.83;8.93;;;;;;;;;;4743508;30;20231;-90
2022/01/17 13:31:23;;;;;;;22.30;14.20;;;;;;;;;;4723965;30;20203;-88
2022/01/17 13:34:28;;;;;;;12.73;8.10;;;;;;;;;;4749195;30;20223;-88
2022/01/17 13:37:32;;;;;;;15.40;10.57;;;;;;;;;;4735718;30;20636;-88
2022/01/17 13:40:38;;;;;;;11.07;7.50;;;;;;;;;;4749527;30;20643;-88
2022/01/17 13:43:52;;;;;;;6.97;4.93;;;;;;;;;;4740849;30;20213;-88
2022/01/17 13:47:06;;;;;;;6.40;4.67;;;;;;;;;;4740488;30;20202;-88
2022/01/17 13:50:11;;;;;;;6.30;4.57;;;;;;;;;;4740134;30;20556;-89
2022/01/17 13:53:18;;;;;;;6.20;4.70;;;;;;;;;;4760672;30;20210;-89
2022/01/17 13:56:30;;;;;;;6.00;4.37;;;;;;;;;;4740453;30;20244;-88
2022/01/17 13:59:34;;;;;;;5.70;3.90;;;;;;;;;;4759962;30;21009;-89
2022/01/17 14:02:40;;;;;;;6.93;4.17;;;;;;;;;;4750438;30;20588;-88
2022/01/17 14:05:47;;;;;;;9.57;4.67;;;;;;;;;;4739984;30;20651;-88
2022/01/17 14:08:58;;;;;;;5.70;3.93;;;;;;;;;;4746064;30;20230;-88
2022/01/17 14:12:10;;;;;;;6.00;3.90;;;;;;;;;;4749580;30;20206;-88
2022/01/17 14:15:14;;;;;;;4.87;3.67;;;;;;;;;;4740137;30;20668;-89
2022/01/17 14:18:19;;;;;;;7.60;4.57;;;;;;;;;;4750108;30;20234;-89
2022/01/17 14:21:26;;;;;;;6.27;3.70;;;;;;;;;;4743060;30;20540;-88
2022/01/17 14:24:40;;;;;;;7.10;4.47;;;;;;;;;;4751908;30;20194;-89
2022/01/17 14:28:05;;;;;;;7.20;3.70;;;;;;;;;;4743535;30;20214;-88
2022/01/17 14:31:14;;;;;;;6.57;5.60;;;;;;;;;;4739552;30;20555;-89
2022/01/17 14:34:20;;;;;;;7.20;6.17;;;;;;;;;;4739442;30;20206;-88
2022/01/17 14:37:26;;;;;;;16.53;8.93;;;;;;;;;;4739587;30;20593;-88
2022/01/17 14:40:32;;;;;;;20.63;11.43;;;;;;;;;;4752597;30;20545;-90
2022/01/17 14:43:38;;;;;;;17.70;12.00;;;;;;;;;;4736416;30;20608;-88
2022/01/17 14:46:48;;;;;;;10.03;5.57;;;;;;;;;;4770745;30;20643;-89
2022/01/17 14:50:01;;;;;;;8.80;6.20;;;;;;;;;;4741211;30;20660;-89
2022/01/17 14:53:14;;;;;;;12.70;9.33;;;;;;;;;;4752739;30;20562;-89
2022/01/17 14:59:52;;;;;;;4.97;3.87;;;;;;;;;;4753496;30;20660;-88
2022/01/17 15:03:30;;;;;;;4.63;4.17;;;;;;;;;;4749218;30;20600;-88
2022/01/17 15:06:27;;;;;;;6.90;4.30;;;;;;;;;;4752976;30;20198;-89
2022/01/17 15:09:31;;;;;;;5.83;3.63;;;;;;;;;;4741772;30;20628;-89
2022/01/17 15:12:35;;;;;;;5.53;3.73;;;;;;;;;;4752010;30;20593;-88
2022/01/17 15:15:42;;;;;;;7.00;3.77;;;;;;;;;;4742118;30;20604;-89
2022/01/17 15:18:46;;;;;;;5.53;4.27;;;;;;;;;;4741108;30;20651;-88
2022/01/17 15:21:50;;;;;;;12.93;8.87;;;;;;;;;;4733593;30;20629;-88
2022/01/17 15:24:54;;;;;;;12.43;9.10;;;;;;;;;;4744568;30;20885;-88
2022/01/17 15:27:59;;;;;;;6.43;4.47;;;;;;;;;;4738911;30;20655;-89
2022/01/17 15:31:05;;;;;;;13.97;10.13;;;;;;;;;;4751440;30;20973;-89
2022/01/17 15:34:09;;;;;;;8.10;5.40;;;;;;;;;;4750843;30;20609;-89
2022/01/17 15:37:14;;;;;;;5.70;4.10;;;;;;;;;;4745005;30;20600;-89
2022/01/17 15:40:18;;;;;;;5.17;3.90;;;;;;;;;;4759695;30;20596;-90
2022/01/17 15:43:25;;;;;;;6.30;4.23;;;;;;;;;;4743467;30;20557;-89
2022/01/17 15:46:30;;;;;;;6.40;4.27;;;;;;;;;;4762901;30;21214;-89
2022/01/17 15:49:34;;;;;;;7.77;4.13;;;;;;;;;;4742373;30;20667;-88
2022/01/17 15:52:39;;;;;;;4.83;3.77;;;;;;;;;;4761120;30;21156;-89
2022/01/17 16:10:49;;;;;;;5.90;3.37;;;;;;;;;;4754114;30;20636;-88
2022/01/17 16:13:53;;;;;;;6.00;4.00;;;;;;;;;;4707939;30;21121;-88
2022/01/17 16:16:58;;;;;;;5.07;3.73;;;;;;;;;;4724708;30;20621;-88
2022/01/17 16:20:03;;;;;;;5.07;3.77;;;;;;;;;;4725138;30;20557;-88
2022/01/17 16:23:07;;;;;;;6.50;4.20;;;;;;;;;;4754877;30;20562;-87
2022/01/17 16:26:11;;;;;;;9.67;4.37;;;;;;;;;;4724542;30;20903;-86
2022/01/17 16:29:15;;;;;;;6.33;4.70;;;;;;;;;;4725388;30;21171;-87
2022/01/17 16:32:21;;;;;;;7.37;4.77;;;;;;;;;;4734767;30;20557;-88
2022/01/17 16:35:25;;;;;;;13.83;9.03;;;;;;;;;;4743865;30;20633;-88
2022/01/17 16:38:31;;;;;;;13.20;9.40;;;;;;;;;;4741875;30;20623;-88
2022/01/17 16:41:35;;;;;;;6.57;5.30;;;;;;;;;;4741815;30;20604;-88
2022/01/17 16:44:40;;;;;;;5.90;4.90;;;;;;;;;;4741018;30;20596;-88
2022/01/17 16:47:46;;;;;;;4.67;3.77;;;;;;;;;;4728564;30;20585;-88
2022/01/17 16:50:51;;;;;;;6.60;4.13;;;;;;;;;;4748585;30;20607;-90
2022/01/17 16:53:56;;;;;;;8.40;7.03;;;;;;;;;;4735065;30;20608;-88
2022/01/17 16:57:00;;;;;;;6.77;4.70;;;;;;;;;;4744541;30;20639;-88
2022/01/17 17:00:05;;;;;;;9.97;6.43;;;;;;;;;;4746117;30;20635;-87
2022/01/17 17:03:09;;;;;;;10.53;6.10;;;;;;;;;;4741032;30;20632;-86
2022/01/17 17:06:13;;;;;;;7.20;6.07;;;;;;;;;;4741121;30;20954;-86
2022/01/17 17:09:17;;;;;;;6.40;5.17;;;;;;;;;;4736477;30;20655;-87
2022/01/17 17:12:23;;;;;;;5.50;4.30;;;;;;;;;;4740880;30;20632;-87
2022/01/17 17:15:28;;;;;;;6.77;4.43;;;;;;;;;;4740819;30;20596;-88
2022/01/17 17:18:35;;;;;;;4.87;4.37;;;;;;;;;;4753462;30;20667;-87
2022/01/17 17:21:42;;;;;;;5.80;3.47;;;;;;;;;;4741223;30;20596;-88
2022/01/17 17:24:47;;;;;;;6.03;4.90;;;;;;;;;;4750875;30;20620;-87
2022/01/17 17:27:51;;;;;;;7.77;6.20;;;;;;;;;;4750812;30;21010;-87
2022/01/17 17:30:55;;;;;;;6.10;5.00;;;;;;;;;;4738380;30;20592;-87
2022/01/17 17:34:00;;;;;;;5.53;4.07;;;;;;;;;;4750575;30;20612;-87
2022/01/17 17:37:05;;;;;;;10.83;8.13;;;;;;;;;;4727440;30;20636;-87
2022/01/17 17:40:10;;;;;;;6.43;5.03;;;;;;;;;;4760535;30;20639;-87
2022/01/17 17:43:14;;;;;;;6.17;3.80;;;;;;;;;;4750791;30;20973;-87
2022/01/17 17:46:19;;;;;;;4.07;3.13;;;;;;;;;;4740280;30;20600;-87
2022/01/17 17:49:23;;;;;;;9.47;3.77;;;;;;;;;;4729740;30;21242;-87
2022/01/17 17:52:27;;;;;;;4.67;3.67;;;;;;;;;;4740226;30;20604;-87
2022/01/17 17:55:32;;;;;;;4.67;3.53;;;;;;;;;;4750589;30;20604;-87
2022/01/17 17:58:36;;;;;;;4.03;3.40;;;;;;;;;;4750226;30;20663;-87
2022/01/17 18:01:40;;;;;;;7.87;3.83;;;;;;;;;;4740104;30;20600;-87
2022/01/17 18:04:44;;;;;;;4.87;3.77;;;;;;;;;;4738952;30;20597;-87
2022/01/17 18:07:49;;;;;;;13.33;9.83;;;;;;;;;;4740058;30;20604;-87
2022/01/17 18:10:53;;;;;;;20.57;13.37;;;;;;;;;;4739856;30;20631;-87
2022/01/17 18:13:58;;;;;;;10.50;6.20;;;;;;;;;;4739501;30;20949;-87
2022/01/17 18:17:03;;;;;;;7.87;6.07;;;;;;;;;;4740229;30;20640;-87
2022/01/17 18:20:08;;;;;;;7.47;5.83;;;;;;;;;;4739820;30;20608;-87
2022/01/17 18:23:12;;;;;;;11.17;8.57;;;;;;;;;;4749717;30;21280;-87
2022/01/17 18:26:16;;;;;;;5.20;3.97;;;;;;;;;;4738977;30;20600;-88
2022/01/17 18:29:21;;;;;;;5.77;3.70;;;;;;;;;;4738941;30;20652;-86
2022/01/17 18:32:25;;;;;;;6.07;4.00;;;;;;;;;;4749773;30;20628;-87
2022/01/17 18:35:29;;;;;;;4.87;3.77;;;;;;;;;;4739819;30;20596;-87
2022/01/17 18:38:34;;;;;;;8.63;3.80;;;;;;;;;;4740249;30;20620;-86
2022/01/17 18:41:39;;;;;;;5.10;4.00;;;;;;;;;;4739754;30;20608;-88
2022/01/17 18:44:44;;;;;;;6.37;4.00;;;;;;;;;;4750184;30;20544;-87
2022/01/17 18:47:48;;;;;;;5.30;3.93;;;;;;;;;;4759587;30;20600;-88
2022/01/17 18:50:52;;;;;;;4.97;4.03;;;;;;;;;;4722546;30;20553;-87
2022/01/17 18:53:57;;;;;;;4.43;3.67;;;;;;;;;;4739763;30;20596;-87
2022/01/17 18:57:03;;;;;;;4.87;3.53;;;;;;;;;;4732577;30;20608;-87
2022/01/17 19:00:08;;;;;;;5.07;3.60;;;;;;;;;;4731021;30;20611;-86
2022/01/17 19:03:12;;;;;;;5.77;3.87;;;;;;;;;;4745376;30;20596;-87